sensor_id;sensor_type;location;lat;lon;timestamp;temperature;humidity
18541;DHT22;9400;50.924;5.328;2023-03-17T00:01:55;11.40;99.90
18541;DHT22;9400;50.924;5.328;2023-03-17T00:04:23;11.30;99.90
18541;DHT22;9400;50.924;5.328;2023-03-17T00:06:52;11.40;99.90
18541;DHT22;9400;50.924;5.328;2023-03-17T00:09:21;11.30;99.90
18541;DHT22;9400;50.924;5.328;2023-03-17T00:11:49;11.30;99.90
18541;DHT22;9400;50.924;5.328;2023-03-17T00:14:19;11.30;99.90
18541;DHT22;9400;50.924;5.328;2023-03-17T00:16:48;11.20;99.90
18541;DHT22;9400;50.924;5.328;2023-03-17T00:19:25;11.20;99.90
18541;DHT22;9400;50.924;5.328;2023-03-17T00:21:55;11.20;99.90
18541;DHT22;9400;50.924;5.328;2023-03-17T00:24:22;11.10;99.90
18541;DHT22;9400;50.924;5.328;2023-03-17T00:26:50;11.10;99.90
18541;DHT22;9400;50.924;5.328;2023-03-17T00:29:19;11.10;99.90
18541;DHT22;9400;50.924;5.328;2023-03-17T00:31:47;11.10;99.90
18541;DHT22;9400;50.924;5.328;2023-03-17T00:34:17;11.10;99.90
18541;DHT22;9400;50.924;5.328;2023-03-17T00:36:46;11.10;99.90
18541;DHT22;9400;50.924;5.328;2023-03-17T00:39:14;11.00;99.90
18541;DHT22;9400;50.924;5.328;2023-03-17T00:41:43;11.10;99.90
18541;DHT22;9400;50.924;5.328;2023-03-17T00:44:10;11.10;99.90
18541;DHT22;9400;50.924;5.328;2023-03-17T00:46:41;11.10;99.90
18541;DHT22;9400;50.924;5.328;2023-03-17T00:49:14;11.10;99.90
18541;DHT22;9400;50.924;5.328;2023-03-17T00:51:42;11.00;99.90
18541;DHT22;9400;50.924;5.328;2023-03-17T00:54:12;10.90;99.90
18541;DHT22;9400;50.924;5.328;2023-03-17T00:56:40;10.90;99.90
18541;DHT22;9400;50.924;5.328;2023-03-17T00:59:17;10.90;99.90
18541;DHT22;9400;50.924;5.328;2023-03-17T01:01:48;10.80;99.90
18541;DHT22;9400;50.924;5.328;2023-03-17T01:04:16;10.80;99.90
18541;DHT22;9400;50.924;5.328;2023-03-17T01:06:44;10.80;99.90
18541;DHT22;9400;50.924;5.328;2023-03-17T01:09:13;10.70;99.90
18541;DHT22;9400;50.924;5.328;2023-03-17T01:11:43;10.70;99.90
18541;DHT22;9400;50.924;5.328;2023-03-17T01:14:12;10.70;99.90
18541;DHT22;9400;50.924;5.328;2023-03-17T01:16:40;10.80;99.90
18541;DHT22;9400;50.924;5.328;2023-03-17T01:19:10;10.80;99.90
18541;DHT22;9400;50.924;5.328;2023-03-17T01:21:39;10.70;99.90
18541;DHT22;9400;50.924;5.328;2023-03-17T01:24:07;10.70;99.90
18541;DHT22;9400;50.924;5.328;2023-03-17T01:26:35;10.80;99.90
18541;DHT22;9400;50.924;5.328;2023-03-17T01:29:03;10.70;99.90
18541;DHT22;9400;50.924;5.328;2023-03-17T01:31:31;10.70;99.90
18541;DHT22;9400;50.924;5.328;2023-03-17T01:33:58;10.70;99.90
18541;DHT22;9400;50.924;5.328;2023-03-17T01:36:27;10.70;99.90
18541;DHT22;9400;50.924;5.328;2023-03-17T01:38:55;10.70;99.90
18541;DHT22;9400;50.924;5.328;2023-03-17T01:41:24;10.60;99.90
18541;DHT22;9400;50.924;5.328;2023-03-17T01:43:51;10.60;99.90
18541;DHT22;9400;50.924;5.328;2023-03-17T01:46:22;10.60;99.90
18541;DHT22;9400;50.924;5.328;2023-03-17T01:49:11;10.60;99.90
18541;DHT22;9400;50.924;5.328;2023-03-17T01:51:49;10.60;99.90
18541;DHT22;9400;50.924;5.328;2023-03-17T01:54:23;10.60;99.90
18541;DHT22;9400;50.924;5.328;2023-03-17T01:56:55;10.60;99.90
18541;DHT22;9400;50.924;5.328;2023-03-17T01:59:27;10.60;99.90
18541;DHT22;9400;50.924;5.328;2023-03-17T02:01:59;10.60;99.90
18541;DHT22;9400;50.924;5.328;2023-03-17T02:04:29;10.60;99.90
18541;DHT22;9400;50.924;5.328;2023-03-17T02:06:59;10.60;99.90
18541;DHT22;9400;50.924;5.328;2023-03-17T02:09:28;10.60;99.90
18541;DHT22;9400;50.924;5.328;2023-03-17T02:11:58;10.60;99.90
18541;DHT22;9400;50.924;5.328;2023-03-17T02:14:26;10.60;99.90
18541;DHT22;9400;50.924;5.328;2023-03-17T02:16:54;10.60;99.90
18541;DHT22;9400;50.924;5.328;2023-03-17T02:19:22;10.60;99.90
18541;DHT22;9400;50.924;5.328;2023-03-17T02:21:52;10.60;99.90
18541;DHT22;9400;50.924;5.328;2023-03-17T02:24:25;10.70;99.90
18541;DHT22;9400;50.924;5.328;2023-03-17T02:26:57;10.70;99.90
18541;DHT22;9400;50.924;5.328;2023-03-17T02:29:25;10.70;99.90
18541;DHT22;9400;50.924;5.328;2023-03-17T02:31:54;10.70;99.90
18541;DHT22;9400;50.924;5.328;2023-03-17T02:34:21;10.70;99.90
18541;DHT22;9400;50.924;5.328;2023-03-17T02:36:48;10.70;99.90
18541;DHT22;9400;50.924;5.328;2023-03-17T02:39:18;10.70;99.90
18541;DHT22;9400;50.924;5.328;2023-03-17T02:41:46;10.70;99.90
18541;DHT22;9400;50.924;5.328;2023-03-17T02:44:14;10.70;99.90
18541;DHT22;9400;50.924;5.328;2023-03-17T02:46:45;10.70;99.90
18541;DHT22;9400;50.924;5.328;2023-03-17T02:49:13;10.80;99.90
18541;DHT22;9400;50.924;5.328;2023-03-17T02:51:42;10.70;99.90
18541;DHT22;9400;50.924;5.328;2023-03-17T02:54:11;10.70;99.90
18541;DHT22;9400;50.924;5.328;2023-03-17T02:56:39;10.70;99.90
18541;DHT22;9400;50.924;5.328;2023-03-17T02:59:07;10.70;99.90
18541;DHT22;9400;50.924;5.328;2023-03-17T03:01:36;10.70;99.90
18541;DHT22;9400;50.924;5.328;2023-03-17T03:04:04;10.70;99.90
18541;DHT22;9400;50.924;5.328;2023-03-17T03:06:32;10.70;99.90
18541;DHT22;9400;50.924;5.328;2023-03-17T03:08:59;10.70;99.90
18541;DHT22;9400;50.924;5.328;2023-03-17T03:11:27;10.80;99.90
18541;DHT22;9400;50.924;5.328;2023-03-17T03:13:56;10.70;99.90
18541;DHT22;9400;50.924;5.328;2023-03-17T03:16:24;10.60;99.90
18541;DHT22;9400;50.924;5.328;2023-03-17T03:18:51;10.70;99.90
18541;DHT22;9400;50.924;5.328;2023-03-17T03:21:19;10.60;99.90
18541;DHT22;9400;50.924;5.328;2023-03-17T03:23:46;10.60;99.90
18541;DHT22;9400;50.924;5.328;2023-03-17T03:26:14;10.60;99.90
18541;DHT22;9400;50.924;5.328;2023-03-17T03:28:42;10.50;99.90
18541;DHT22;9400;50.924;5.328;2023-03-17T03:31:12;10.50;99.90
18541;DHT22;9400;50.924;5.328;2023-03-17T03:33:40;10.50;99.90
18541;DHT22;9400;50.924;5.328;2023-03-17T03:36:07;10.50;99.90
18541;DHT22;9400;50.924;5.328;2023-03-17T03:38:36;10.50;99.90
18541;DHT22;9400;50.924;5.328;2023-03-17T03:41:04;10.50;99.90
18541;DHT22;9400;50.924;5.328;2023-03-17T03:43:32;10.50;99.90
18541;DHT22;9400;50.924;5.328;2023-03-17T03:46:00;10.50;99.90
18541;DHT22;9400;50.924;5.328;2023-03-17T03:48:29;10.40;99.90
18541;DHT22;9400;50.924;5.328;2023-03-17T03:50:58;10.40;99.90
18541;DHT22;9400;50.924;5.328;2023-03-17T03:53:26;10.50;99.90
18541;DHT22;9400;50.924;5.328;2023-03-17T03:55:54;10.40;99.90
18541;DHT22;9400;50.924;5.328;2023-03-17T03:58:21;10.40;99.90
18541;DHT22;9400;50.924;5.328;2023-03-17T04:00:49;10.40;99.90
18541;DHT22;9400;50.924;5.328;2023-03-17T04:03:16;10.50;99.90
18541;DHT22;9400;50.924;5.328;2023-03-17T04:05:46;10.40;99.90
18541;DHT22;9400;50.924;5.328;2023-03-17T04:08:14;10.40;99.90
18541;DHT22;9400;50.924;5.328;2023-03-17T04:10:41;10.40;99.90
18541;DHT22;9400;50.924;5.328;2023-03-17T04:13:09;10.40;99.90
18541;DHT22;9400;50.924;5.328;2023-03-17T04:15:37;10.40;99.90
18541;DHT22;9400;50.924;5.328;2023-03-17T04:18:05;10.40;99.90
18541;DHT22;9400;50.924;5.328;2023-03-17T04:20:32;10.30;99.90
18541;DHT22;9400;50.924;5.328;2023-03-17T04:23:02;10.30;99.90
18541;DHT22;9400;50.924;5.328;2023-03-17T04:25:30;10.30;99.90
18541;DHT22;9400;50.924;5.328;2023-03-17T04:27:58;10.20;99.90
18541;DHT22;9400;50.924;5.328;2023-03-17T04:30:26;10.30;99.90
18541;DHT22;9400;50.924;5.328;2023-03-17T04:32:53;10.20;99.90
18541;DHT22;9400;50.924;5.328;2023-03-17T04:35:21;10.20;99.90
18541;DHT22;9400;50.924;5.328;2023-03-17T04:37:48;10.20;99.90
18541;DHT22;9400;50.924;5.328;2023-03-17T04:40:18;10.20;99.90
18541;DHT22;9400;50.924;5.328;2023-03-17T04:42:46;10.10;99.90
18541;DHT22;9400;50.924;5.328;2023-03-17T04:45:14;10.00;99.90
18541;DHT22;9400;50.924;5.328;2023-03-17T04:47:41;10.00;99.90
18541;DHT22;9400;50.924;5.328;2023-03-17T04:50:11;9.90;99.90
18541;DHT22;9400;50.924;5.328;2023-03-17T04:52:40;9.90;99.90
18541;DHT22;9400;50.924;5.328;2023-03-17T04:55:08;9.90;99.90
18541;DHT22;9400;50.924;5.328;2023-03-17T04:57:38;9.90;99.90
18541;DHT22;9400;50.924;5.328;2023-03-17T05:00:08;9.90;99.90
18541;DHT22;9400;50.924;5.328;2023-03-17T05:02:37;9.90;99.90
18541;DHT22;9400;50.924;5.328;2023-03-17T05:05:05;9.90;99.90
18541;DHT22;9400;50.924;5.328;2023-03-17T05:07:33;9.90;99.90
18541;DHT22;9400;50.924;5.328;2023-03-17T05:10:01;9.90;99.90
18541;DHT22;9400;50.924;5.328;2023-03-17T05:12:28;9.90;99.90
18541;DHT22;9400;50.924;5.328;2023-03-17T05:14:58;9.80;99.90
18541;DHT22;9400;50.924;5.328;2023-03-17T05:17:25;9.80;99.90
18541;DHT22;9400;50.924;5.328;2023-03-17T05:19:53;9.80;99.90
18541;DHT22;9400;50.924;5.328;2023-03-17T05:22:20;9.80;99.90
18541;DHT22;9400;50.924;5.328;2023-03-17T05:24:48;9.80;99.90
18541;DHT22;9400;50.924;5.328;2023-03-17T05:27:16;9.80;99.90
18541;DHT22;9400;50.924;5.328;2023-03-17T05:29:43;9.80;99.90
18541;DHT22;9400;50.924;5.328;2023-03-17T05:32:14;9.80;99.90
18541;DHT22;9400;50.924;5.328;2023-03-17T05:34:45;9.80;99.90
18541;DHT22;9400;50.924;5.328;2023-03-17T05:37:12;9.80;99.90
18541;DHT22;9400;50.924;5.328;2023-03-17T05:39:40;9.90;99.90
18541;DHT22;9400;50.924;5.328;2023-03-17T05:42:08;9.90;99.90
18541;DHT22;9400;50.924;5.328;2023-03-17T05:44:39;9.90;99.90
18541;DHT22;9400;50.924;5.328;2023-03-17T05:47:08;9.90;99.90
18541;DHT22;9400;50.924;5.328;2023-03-17T05:49:37;9.90;99.90
18541;DHT22;9400;50.924;5.328;2023-03-17T05:52:05;9.90;99.90
18541;DHT22;9400;50.924;5.328;2023-03-17T05:54:32;9.90;99.90
18541;DHT22;9400;50.924;5.328;2023-03-17T05:57:00;9.80;99.90
18541;DHT22;9400;50.924;5.328;2023-03-17T05:59:29;9.90;99.90
18541;DHT22;9400;50.924;5.328;2023-03-17T06:01:57;9.80;99.90
18541;DHT22;9400;50.924;5.328;2023-03-17T06:04:24;9.90;99.90
18541;DHT22;9400;50.924;5.328;2023-03-17T06:06:53;9.90;99.90
18541;DHT22;9400;50.924;5.328;2023-03-17T06:09:20;9.90;99.90
18541;DHT22;9400;50.924;5.328;2023-03-17T06:11:48;9.90;99.90
18541;DHT22;9400;50.924;5.328;2023-03-17T06:14:19;9.90;99.90
18541;DHT22;9400;50.924;5.328;2023-03-17T06:16:47;9.90;99.90
18541;DHT22;9400;50.924;5.328;2023-03-17T06:19:14;9.80;99.90
18541;DHT22;9400;50.924;5.328;2023-03-17T06:21:42;9.90;99.90
18541;DHT22;9400;50.924;5.328;2023-03-17T06:24:11;10.00;99.90
18541;DHT22;9400;50.924;5.328;2023-03-17T06:26:39;10.00;99.90
18541;DHT22;9400;50.924;5.328;2023-03-17T06:29:07;10.10;99.90
18541;DHT22;9400;50.924;5.328;2023-03-17T06:31:39;10.10;99.90
18541;DHT22;9400;50.924;5.328;2023-03-17T06:34:06;10.10;99.90
18541;DHT22;9400;50.924;5.328;2023-03-17T06:36:34;10.10;99.90
18541;DHT22;9400;50.924;5.328;2023-03-17T06:39:04;10.20;99.90
18541;DHT22;9400;50.924;5.328;2023-03-17T06:41:33;10.20;99.90
18541;DHT22;9400;50.924;5.328;2023-03-17T06:44:00;10.30;99.90
18541;DHT22;9400;50.924;5.328;2023-03-17T06:46:30;10.30;99.90
18541;DHT22;9400;50.924;5.328;2023-03-17T06:48:57;10.40;99.90
18541;DHT22;9400;50.924;5.328;2023-03-17T06:51:26;10.50;99.90
18541;DHT22;9400;50.924;5.328;2023-03-17T06:53:54;10.50;99.90
18541;DHT22;9400;50.924;5.328;2023-03-17T06:56:22;10.50;99.90
18541;DHT22;9400;50.924;5.328;2023-03-17T06:58:51;10.60;99.90
18541;DHT22;9400;50.924;5.328;2023-03-17T07:01:18;10.70;99.90
18541;DHT22;9400;50.924;5.328;2023-03-17T07:03:47;10.70;99.90
18541;DHT22;9400;50.924;5.328;2023-03-17T07:06:14;10.60;99.90
18541;DHT22;9400;50.924;5.328;2023-03-17T07:08:42;10.70;99.90
18541;DHT22;9400;50.924;5.328;2023-03-17T07:11:11;10.70;99.90
18541;DHT22;9400;50.924;5.328;2023-03-17T07:13:39;10.70;99.90
18541;DHT22;9400;50.924;5.328;2023-03-17T07:16:10;10.80;99.90
18541;DHT22;9400;50.924;5.328;2023-03-17T07:18:38;10.80;99.90
18541;DHT22;9400;50.924;5.328;2023-03-17T07:21:06;11.00;99.90
18541;DHT22;9400;50.924;5.328;2023-03-17T07:23:34;11.10;99.90
18541;DHT22;9400;50.924;5.328;2023-03-17T07:26:02;11.10;99.90
18541;DHT22;9400;50.924;5.328;2023-03-17T07:28:29;11.20;99.90
18541;DHT22;9400;50.924;5.328;2023-03-17T07:30:57;11.20;99.90
18541;DHT22;9400;50.924;5.328;2023-03-17T07:33:28;11.30;99.90
18541;DHT22;9400;50.924;5.328;2023-03-17T07:35:58;11.30;99.90
18541;DHT22;9400;50.924;5.328;2023-03-17T07:38:27;11.30;99.90
18541;DHT22;9400;50.924;5.328;2023-03-17T07:40:54;11.40;99.90
18541;DHT22;9400;50.924;5.328;2023-03-17T07:43:22;11.50;99.90
18541;DHT22;9400;50.924;5.328;2023-03-17T07:45:50;11.60;99.90
18541;DHT22;9400;50.924;5.328;2023-03-17T07:48:18;11.70;99.90
18541;DHT22;9400;50.924;5.328;2023-03-17T07:50:47;11.70;99.90
18541;DHT22;9400;50.924;5.328;2023-03-17T07:53:15;11.70;99.90
18541;DHT22;9400;50.924;5.328;2023-03-17T07:55:42;11.70;99.90
18541;DHT22;9400;50.924;5.328;2023-03-17T07:58:10;11.70;99.90
18541;DHT22;9400;50.924;5.328;2023-03-17T08:00:37;11.80;99.90
18541;DHT22;9400;50.924;5.328;2023-03-17T08:03:05;11.80;99.90
18541;DHT22;9400;50.924;5.328;2023-03-17T08:05:33;11.80;99.90
18541;DHT22;9400;50.924;5.328;2023-03-17T08:08:02;11.90;99.90
18541;DHT22;9400;50.924;5.328;2023-03-17T08:10:30;12.00;99.90
18541;DHT22;9400;50.924;5.328;2023-03-17T08:12:57;11.90;99.90
18541;DHT22;9400;50.924;5.328;2023-03-17T08:15:26;11.90;99.90
18541;DHT22;9400;50.924;5.328;2023-03-17T08:17:55;12.00;99.90
18541;DHT22;9400;50.924;5.328;2023-03-17T08:20:22;12.20;99.90
18541;DHT22;9400;50.924;5.328;2023-03-17T08:22:50;12.30;99.90
18541;DHT22;9400;50.924;5.328;2023-03-17T08:25:18;12.40;99.90
18541;DHT22;9400;50.924;5.328;2023-03-17T08:27:46;12.50;99.90
18541;DHT22;9400;50.924;5.328;2023-03-17T08:30:15;12.70;99.90
18541;DHT22;9400;50.924;5.328;2023-03-17T08:32:43;12.80;99.90
18541;DHT22;9400;50.924;5.328;2023-03-17T08:35:11;12.90;99.90
18541;DHT22;9400;50.924;5.328;2023-03-17T08:37:41;13.10;99.90
18541;DHT22;9400;50.924;5.328;2023-03-17T08:40:09;13.20;99.90
18541;DHT22;9400;50.924;5.328;2023-03-17T08:42:39;13.20;99.90
18541;DHT22;9400;50.924;5.328;2023-03-17T08:45:07;13.20;99.90
18541;DHT22;9400;50.924;5.328;2023-03-17T08:47:39;13.30;99.90
18541;DHT22;9400;50.924;5.328;2023-03-17T08:50:09;13.50;99.90
18541;DHT22;9400;50.924;5.328;2023-03-17T08:52:38;13.60;99.90
18541;DHT22;9400;50.924;5.328;2023-03-17T08:55:06;13.70;99.90
18541;DHT22;9400;50.924;5.328;2023-03-17T08:57:34;13.70;99.90
18541;DHT22;9400;50.924;5.328;2023-03-17T09:00:06;13.90;99.90
18541;DHT22;9400;50.924;5.328;2023-03-17T09:02:36;13.90;99.90
18541;DHT22;9400;50.924;5.328;2023-03-17T09:05:04;13.90;99.90
18541;DHT22;9400;50.924;5.328;2023-03-17T09:07:32;14.10;99.90
18541;DHT22;9400;50.924;5.328;2023-03-17T09:10:00;14.00;99.90
18541;DHT22;9400;50.924;5.328;2023-03-17T09:12:29;14.00;99.90
18541;DHT22;9400;50.924;5.328;2023-03-17T09:14:57;13.90;99.90
18541;DHT22;9400;50.924;5.328;2023-03-17T09:17:26;13.90;99.90
18541;DHT22;9400;50.924;5.328;2023-03-17T09:19:57;14.10;99.90
18541;DHT22;9400;50.924;5.328;2023-03-17T09:22:25;14.10;99.90
18541;DHT22;9400;50.924;5.328;2023-03-17T09:24:53;14.10;99.90
18541;DHT22;9400;50.924;5.328;2023-03-17T09:27:21;14.20;99.90
18541;DHT22;9400;50.924;5.328;2023-03-17T09:29:48;14.30;99.90
18541;DHT22;9400;50.924;5.328;2023-03-17T09:32:16;14.40;99.90
18541;DHT22;9400;50.924;5.328;2023-03-17T09:34:46;14.40;99.90
18541;DHT22;9400;50.924;5.328;2023-03-17T09:37:13;14.40;99.90
18541;DHT22;9400;50.924;5.328;2023-03-17T09:39:41;14.40;99.90
18541;DHT22;9400;50.924;5.328;2023-03-17T09:42:22;14.60;99.90
18541;DHT22;9400;50.924;5.328;2023-03-17T09:45:02;14.60;99.90
18541;DHT22;9400;50.924;5.328;2023-03-17T09:50:40;14.60;99.90
18541;DHT22;9400;50.924;5.328;2023-03-17T09:53:16;14.50;99.90
18541;DHT22;9400;50.924;5.328;2023-03-17T09:55:46;14.50;99.90
18541;DHT22;9400;50.924;5.328;2023-03-17T09:58:14;14.70;99.90
18541;DHT22;9400;50.924;5.328;2023-03-17T10:00:43;14.70;99.90
18541;DHT22;9400;50.924;5.328;2023-03-17T10:03:11;14.70;99.90
18541;DHT22;9400;50.924;5.328;2023-03-17T10:05:42;15.00;99.90
18541;DHT22;9400;50.924;5.328;2023-03-17T10:08:15;15.30;99.90
18541;DHT22;9400;50.924;5.328;2023-03-17T10:10:47;15.50;99.90
18541;DHT22;9400;50.924;5.328;2023-03-17T10:13:24;15.70;99.90
18541;DHT22;9400;50.924;5.328;2023-03-17T10:15:58;15.50;99.90
18541;DHT22;9400;50.924;5.328;2023-03-17T10:18:32;15.40;99.90
18541;DHT22;9400;50.924;5.328;2023-03-17T10:21:06;15.40;99.90
18541;DHT22;9400;50.924;5.328;2023-03-17T10:23:35;15.50;99.90
18541;DHT22;9400;50.924;5.328;2023-03-17T10:26:07;15.70;99.90
18541;DHT22;9400;50.924;5.328;2023-03-17T10:28:40;15.90;99.90
18541;DHT22;9400;50.924;5.328;2023-03-17T10:31:14;15.90;99.90
18541;DHT22;9400;50.924;5.328;2023-03-17T10:33:43;16.10;99.90
18541;DHT22;9400;50.924;5.328;2023-03-17T10:36:14;16.10;99.90
18541;DHT22;9400;50.924;5.328;2023-03-17T10:38:50;16.20;99.90
18541;DHT22;9400;50.924;5.328;2023-03-17T10:41:19;16.10;99.90
18541;DHT22;9400;50.924;5.328;2023-03-17T10:43:48;16.10;99.90
18541;DHT22;9400;50.924;5.328;2023-03-17T10:46:19;16.20;99.90
18541;DHT22;9400;50.924;5.328;2023-03-17T10:48:52;16.30;99.90
18541;DHT22;9400;50.924;5.328;2023-03-17T10:51:31;16.40;99.90
18541;DHT22;9400;50.924;5.328;2023-03-17T10:54:00;16.20;99.90
18541;DHT22;9400;50.924;5.328;2023-03-17T10:56:32;16.30;99.90
18541;DHT22;9400;50.924;5.328;2023-03-17T10:59:06;16.60;99.90
18541;DHT22;9400;50.924;5.328;2023-03-17T11:01:37;16.80;99.90
18541;DHT22;9400;50.924;5.328;2023-03-17T11:04:26;16.80;99.90
18541;DHT22;9400;50.924;5.328;2023-03-17T11:06:56;16.80;99.90
18541;DHT22;9400;50.924;5.328;2023-03-17T11:09:25;16.90;99.90
18541;DHT22;9400;50.924;5.328;2023-03-17T11:12:03;17.10;99.90
18541;DHT22;9400;50.924;5.328;2023-03-17T11:14:31;17.30;99.90
18541;DHT22;9400;50.924;5.328;2023-03-17T11:17:01;17.40;99.90
18541;DHT22;9400;50.924;5.328;2023-03-17T11:19:43;17.40;99.90
18541;DHT22;9400;50.924;5.328;2023-03-17T11:22:18;17.50;99.90
18541;DHT22;9400;50.924;5.328;2023-03-17T11:24:57;17.60;99.90
18541;DHT22;9400;50.924;5.328;2023-03-17T11:27:30;17.80;99.90
18541;DHT22;9400;50.924;5.328;2023-03-17T11:30:16;18.00;99.90
18541;DHT22;9400;50.924;5.328;2023-03-17T11:32:54;18.00;99.90
18541;DHT22;9400;50.924;5.328;2023-03-17T11:35:41;17.80;99.90
18541;DHT22;9400;50.924;5.328;2023-03-17T11:38:24;18.10;99.90
18541;DHT22;9400;50.924;5.328;2023-03-17T11:46:48;18.60;99.90
18541;DHT22;9400;50.924;5.328;2023-03-17T11:49:19;18.60;99.90
18541;DHT22;9400;50.924;5.328;2023-03-17T11:51:56;18.70;99.90
18541;DHT22;9400;50.924;5.328;2023-03-17T11:54:35;18.90;99.90
18541;DHT22;9400;50.924;5.328;2023-03-17T11:57:10;19.00;99.90
18541;DHT22;9400;50.924;5.328;2023-03-17T11:59:46;19.20;99.90
18541;DHT22;9400;50.924;5.328;2023-03-17T12:02:24;19.50;99.90
18541;DHT22;9400;50.924;5.328;2023-03-17T12:04:57;19.50;99.90
18541;DHT22;9400;50.924;5.328;2023-03-17T12:07:31;19.90;99.90
18541;DHT22;9400;50.924;5.328;2023-03-17T12:10:07;20.00;99.90
18541;DHT22;9400;50.924;5.328;2023-03-17T12:12:45;19.80;99.90
18541;DHT22;9400;50.924;5.328;2023-03-17T12:15:17;19.70;99.90
18541;DHT22;9400;50.924;5.328;2023-03-17T12:17:50;19.60;99.90
18541;DHT22;9400;50.924;5.328;2023-03-17T12:20:25;19.70;99.90
18541;DHT22;9400;50.924;5.328;2023-03-17T12:22:58;19.90;99.90
18541;DHT22;9400;50.924;5.328;2023-03-17T12:25:33;19.90;99.90
18541;DHT22;9400;50.924;5.328;2023-03-17T12:28:09;19.80;99.90
18541;DHT22;9400;50.924;5.328;2023-03-17T12:30:44;19.90;99.90
18541;DHT22;9400;50.924;5.328;2023-03-17T12:33:21;19.90;99.90
18541;DHT22;9400;50.924;5.328;2023-03-17T12:35:52;20.00;99.90
18541;DHT22;9400;50.924;5.328;2023-03-17T12:38:26;19.80;99.90
18541;DHT22;9400;50.924;5.328;2023-03-17T12:44:23;19.60;99.90
18541;DHT22;9400;50.924;5.328;2023-03-17T12:47:16;19.60;99.90
18541;DHT22;9400;50.924;5.328;2023-03-17T12:53:08;19.30;99.90
18541;DHT22;9400;50.924;5.328;2023-03-17T12:55:39;19.20;99.90
18541;DHT22;9400;50.924;5.328;2023-03-17T12:58:21;19.30;99.90
18541;DHT22;9400;50.924;5.328;2023-03-17T13:01:02;19.40;99.90
18541;DHT22;9400;50.924;5.328;2023-03-17T13:03:33;19.50;99.90
18541;DHT22;9400;50.924;5.328;2023-03-17T13:06:05;19.70;99.90
18541;DHT22;9400;50.924;5.328;2023-03-17T13:08:36;20.10;99.90
18541;DHT22;9400;50.924;5.328;2023-03-17T13:11:16;20.60;99.90
18541;DHT22;9400;50.924;5.328;2023-03-17T13:13:55;20.80;99.90
18541;DHT22;9400;50.924;5.328;2023-03-17T13:16:31;20.90;99.90
18541;DHT22;9400;50.924;5.328;2023-03-17T13:19:20;21.40;99.90
18541;DHT22;9400;50.924;5.328;2023-03-17T13:22:22;21.70;99.90
18541;DHT22;9400;50.924;5.328;2023-03-17T13:24:46;22.10;99.90
18541;DHT22;9400;50.924;5.328;2023-03-17T13:27:41;22.10;99.90
18541;DHT22;9400;50.924;5.328;2023-03-17T13:30:41;22.30;99.90
18541;DHT22;9400;50.924;5.328;2023-03-17T13:33:19;22.30;99.90
18541;DHT22;9400;50.924;5.328;2023-03-17T13:36:05;22.80;99.90
18541;DHT22;9400;50.924;5.328;2023-03-17T13:38:48;23.30;99.90
18541;DHT22;9400;50.924;5.328;2023-03-17T13:41:33;23.70;99.90
18541;DHT22;9400;50.924;5.328;2023-03-17T13:44:25;24.70;99.90
18541;DHT22;9400;50.924;5.328;2023-03-17T13:47:11;24.50;99.90
18541;DHT22;9400;50.924;5.328;2023-03-17T13:49:45;24.10;99.90
18541;DHT22;9400;50.924;5.328;2023-03-17T13:52:15;23.50;99.90
18541;DHT22;9400;50.924;5.328;2023-03-17T13:54:48;22.80;99.90
18541;DHT22;9400;50.924;5.328;2023-03-17T13:57:24;22.50;99.90
18541;DHT22;9400;50.924;5.328;2023-03-17T14:00:12;22.20;99.90
18541;DHT22;9400;50.924;5.328;2023-03-17T14:02:43;21.70;99.90
18541;DHT22;9400;50.924;5.328;2023-03-17T14:05:19;21.80;99.90
18541;DHT22;9400;50.924;5.328;2023-03-17T14:07:53;21.60;99.90
18541;DHT22;9400;50.924;5.328;2023-03-17T14:10:24;21.70;99.90
18541;DHT22;9400;50.924;5.328;2023-03-17T14:12:57;21.80;99.90
18541;DHT22;9400;50.924;5.328;2023-03-17T14:15:31;21.60;99.90
18541;DHT22;9400;50.924;5.328;2023-03-17T14:18:02;21.10;99.90
18541;DHT22;9400;50.924;5.328;2023-03-17T14:20:32;21.00;99.90
18541;DHT22;9400;50.924;5.328;2023-03-17T14:23:05;20.80;99.90
18541;DHT22;9400;50.924;5.328;2023-03-17T14:25:33;20.80;99.90
18541;DHT22;9400;50.924;5.328;2023-03-17T14:28:05;20.70;99.90
18541;DHT22;9400;50.924;5.328;2023-03-17T14:30:34;20.80;99.90
18541;DHT22;9400;50.924;5.328;2023-03-17T14:33:05;20.80;99.90
18541;DHT22;9400;50.924;5.328;2023-03-17T14:35:37;20.60;99.90
18541;DHT22;9400;50.924;5.328;2023-03-17T14:38:16;20.40;99.90
18541;DHT22;9400;50.924;5.328;2023-03-17T14:40:48;20.30;99.90
18541;DHT22;9400;50.924;5.328;2023-03-17T14:43:16;20.10;99.90
18541;DHT22;9400;50.924;5.328;2023-03-17T14:45:50;19.90;99.90
18541;DHT22;9400;50.924;5.328;2023-03-17T14:48:22;19.80;99.90
18541;DHT22;9400;50.924;5.328;2023-03-17T14:50:55;19.70;99.90
18541;DHT22;9400;50.924;5.328;2023-03-17T14:53:30;19.60;99.90
18541;DHT22;9400;50.924;5.328;2023-03-17T14:55:59;19.60;99.90
18541;DHT22;9400;50.924;5.328;2023-03-17T14:58:29;19.60;99.90
18541;DHT22;9400;50.924;5.328;2023-03-17T15:01:02;19.50;99.90
18541;DHT22;9400;50.924;5.328;2023-03-17T15:03:32;19.30;99.90
18541;DHT22;9400;50.924;5.328;2023-03-17T15:06:21;19.10;99.90
18541;DHT22;9400;50.924;5.328;2023-03-17T15:08:49;19.10;99.90
18541;DHT22;9400;50.924;5.328;2023-03-17T15:11:23;19.20;99.90
18541;DHT22;9400;50.924;5.328;2023-03-17T15:14:02;19.10;99.90
18541;DHT22;9400;50.924;5.328;2023-03-17T15:16:33;18.90;99.90
18541;DHT22;9400;50.924;5.328;2023-03-17T15:19:05;18.80;99.90
18541;DHT22;9400;50.924;5.328;2023-03-17T15:21:38;18.50;99.90
18541;DHT22;9400;50.924;5.328;2023-03-17T15:24:24;18.40;99.90
18541;DHT22;9400;50.924;5.328;2023-03-17T15:26:59;18.50;99.90
18541;DHT22;9400;50.924;5.328;2023-03-17T15:29:28;18.50;99.90
18541;DHT22;9400;50.924;5.328;2023-03-17T15:32:11;18.50;99.90
18541;DHT22;9400;50.924;5.328;2023-03-17T15:34:40;18.50;99.90
18541;DHT22;9400;50.924;5.328;2023-03-17T15:37:20;18.60;99.90
18541;DHT22;9400;50.924;5.328;2023-03-17T15:39:49;18.60;99.90
18541;DHT22;9400;50.924;5.328;2023-03-17T15:42:19;18.60;99.90
18541;DHT22;9400;50.924;5.328;2023-03-17T15:44:47;18.40;99.90
18541;DHT22;9400;50.924;5.328;2023-03-17T15:47:17;18.30;99.90
18541;DHT22;9400;50.924;5.328;2023-03-17T15:49:46;18.20;99.90
18541;DHT22;9400;50.924;5.328;2023-03-17T15:52:15;18.20;99.90
18541;DHT22;9400;50.924;5.328;2023-03-17T15:54:45;18.20;99.90
18541;DHT22;9400;50.924;5.328;2023-03-17T15:57:12;18.10;99.90
18541;DHT22;9400;50.924;5.328;2023-03-17T15:59:40;18.00;99.90
18541;DHT22;9400;50.924;5.328;2023-03-17T16:02:25;17.90;99.90
18541;DHT22;9400;50.924;5.328;2023-03-17T16:04:54;17.90;99.90
18541;DHT22;9400;50.924;5.328;2023-03-17T16:07:22;17.90;99.90
18541;DHT22;9400;50.924;5.328;2023-03-17T16:09:52;17.80;99.90
18541;DHT22;9400;50.924;5.328;2023-03-17T16:12:19;17.80;99.90
18541;DHT22;9400;50.924;5.328;2023-03-17T16:14:47;17.70;99.90
18541;DHT22;9400;50.924;5.328;2023-03-17T16:17:19;17.60;99.90
18541;DHT22;9400;50.924;5.328;2023-03-17T16:19:48;17.60;99.90
18541;DHT22;9400;50.924;5.328;2023-03-17T16:22:36;17.60;99.90
18541;DHT22;9400;50.924;5.328;2023-03-17T16:25:17;17.60;99.90
18541;DHT22;9400;50.924;5.328;2023-03-17T16:27:46;17.60;99.90